CFG9CU EDDF-LEBL
Flight info
| Callsign | CFG9CU |
|---|---|
| Flight time | 2h 9m |
| Altitude | 35000 |
| Route | ANEKI2L/18 ANEKI Y163 HERBI Y164 MOPAN DCT LUTIX DCT BENOT DCT NEMOS DCT GEVEA/N0423F270 DCT INCUS DCT BALSI/N0450F350 DCT RETNO DCT TUPOX DCT MTG DCT DIVKO DCT NILDU DCT BISBA |
| Aircraft | A321/M-SDE3FGHIRWY/LB1 |
Departure
| Time | 2026-05-04 16:25 |
|---|---|
| Airport | Frankfurt Main Airport (EDDF) |
Arrival
| Time | 2026-05-04 18:34 |
|---|---|
| Airport | Josep Tarradellas Barcelona-El Prat Airport (LEBL) |
| Time | Latitude | Longitude | Altitude | Speed | Heading |
|---|---|---|---|---|---|
| 2026-05-04 16:01 | 50.03943 | 8.54100 | 343 ft | 0 kts | 250° |
| 2026-05-04 16:11 | 50.03945 | 8.54106 | 352 ft | 3 kts | 251° |
| 2026-05-04 16:11 | 50.03950 | 8.54147 | 351 ft | 4 kts | 255° |
| 2026-05-04 16:12 | 50.03999 | 8.54220 | 352 ft | 3 kts | 159° |
| 2026-05-04 16:12 | 50.04006 | 8.54216 | 344 ft | 0 kts | 157° |
| 2026-05-04 16:18 | 50.03984 | 8.54230 | 345 ft | 2 kts | 157° |
| 2026-05-04 16:18 | 50.03966 | 8.54242 | 353 ft | 4 kts | 157° |
| 2026-05-04 16:19 | 50.03826 | 8.54288 | 345 ft | 7 kts | 215° |
| 2026-05-04 16:19 | 50.03787 | 8.54167 | 349 ft | 6 kts | 250° |
| 2026-05-04 16:20 | 50.03738 | 8.53959 | 345 ft | 7 kts | 249° |
| 2026-05-04 16:20 | 50.03701 | 8.53810 | 347 ft | 7 kts | 249° |
| 2026-05-04 16:21 | 50.03648 | 8.53586 | 349 ft | 7 kts | 250° |
| 2026-05-04 16:22 | 50.03609 | 8.53438 | 336 ft | 8 kts | 249° |
| 2026-05-04 16:22 | 50.03541 | 8.53151 | 337 ft | 11 kts | 250° |
| 2026-05-04 16:23 | 50.03434 | 8.52733 | 335 ft | 15 kts | 248° |
| 2026-05-04 16:24 | 50.01957 | 8.52605 | 333 ft | 148 kts | 179° |
| 2026-05-04 16:25 | 49.99535 | 8.52737 | 1018 ft | 172 kts | 178° |
| 2026-05-04 16:26 | 49.93934 | 8.53252 | 2309 ft | 243 kts | 179° |
| 2026-05-04 16:26 | 49.88980 | 8.53494 | 4847 ft | 235 kts | 180° |
| 2026-05-04 16:27 | 49.85755 | 8.53667 | 6501 ft | 230 kts | 179° |
| 2026-05-04 16:28 | 49.80961 | 8.53969 | 8684 ft | 233 kts | 180° |
| 2026-05-04 16:28 | 49.75929 | 8.53884 | 10237 ft | 262 kts | 187° |
| 2026-05-04 16:29 | 49.67448 | 8.52717 | 11218 ft | 336 kts | 187° |
| 2026-05-04 16:30 | 49.60319 | 8.51778 | 13060 ft | 350 kts | 187° |
| 2026-05-04 16:31 | 49.55417 | 8.51136 | 14253 ft | 358 kts | 187° |
| 2026-05-04 16:31 | 49.47868 | 8.50150 | 16045 ft | 368 kts | 187° |
| 2026-05-04 16:32 | 49.40128 | 8.49137 | 17810 ft | 376 kts | 187° |
| 2026-05-04 16:33 | 49.34865 | 8.48452 | 18802 ft | 382 kts | 187° |
| 2026-05-04 16:33 | 49.29539 | 8.47759 | 19721 ft | 386 kts | 187° |
| 2026-05-04 16:34 | 49.24150 | 8.47060 | 20638 ft | 391 kts | 187° |
| 2026-05-04 16:34 | 49.21428 | 8.46706 | 21086 ft | 394 kts | 187° |
| 2026-05-04 16:35 | 49.13172 | 8.45634 | 22430 ft | 401 kts | 187° |
| 2026-05-04 16:35 | 49.04832 | 8.44230 | 23675 ft | 406 kts | 194° |
| 2026-05-04 16:36 | 49.02068 | 8.43265 | 24049 ft | 408 kts | 194° |
| 2026-05-04 16:36 | 48.96523 | 8.41321 | 24844 ft | 410 kts | 194° |
| 2026-05-04 16:37 | 48.90955 | 8.39383 | 25604 ft | 412 kts | 194° |
| 2026-05-04 16:37 | 48.88145 | 8.38407 | 25975 ft | 413 kts | 194° |
| 2026-05-04 16:37 | 48.82515 | 8.36466 | 26689 ft | 417 kts | 194° |
| 2026-05-04 16:38 | 48.76852 | 8.34503 | 27378 ft | 420 kts | 194° |
| 2026-05-04 16:39 | 48.68294 | 8.31365 | 28362 ft | 424 kts | 195° |
| 2026-05-04 16:39 | 48.62621 | 8.29275 | 28983 ft | 427 kts | 195° |
| 2026-05-04 16:40 | 48.56751 | 8.27132 | 29621 ft | 430 kts | 194° |
| 2026-05-04 16:40 | 48.50950 | 8.25039 | 30428 ft | 427 kts | 194° |
| 2026-05-04 16:41 | 48.45197 | 8.22953 | 31148 ft | 424 kts | 195° |
| 2026-05-04 16:41 | 48.36623 | 8.19817 | 32286 ft | 421 kts | 195° |
| 2026-05-04 16:42 | 48.28123 | 8.16727 | 33421 ft | 417 kts | 195° |
| 2026-05-04 16:43 | 48.22691 | 8.14035 | 34084 ft | 413 kts | 207° |
| 2026-05-04 16:43 | 48.17520 | 8.10171 | 34635 ft | 413 kts | 207° |
| 2026-05-04 16:43 | 48.14943 | 8.08264 | 34870 ft | 413 kts | 207° |
| 2026-05-04 16:44 | 48.04725 | 8.00738 | 34994 ft | 409 kts | 207° |
| 2026-05-04 16:45 | 48.00452 | 7.97600 | 34985 ft | 409 kts | 207° |
| 2026-05-04 16:46 | 47.87686 | 7.88261 | 34991 ft | 409 kts | 207° |
| 2026-05-04 16:47 | 47.77473 | 7.80808 | 35006 ft | 409 kts | 207° |
| 2026-05-04 16:48 | 47.67231 | 7.73395 | 35016 ft | 409 kts | 207° |
| 2026-05-04 16:49 | 47.56998 | 7.66002 | 35025 ft | 409 kts | 207° |
| 2026-05-04 16:50 | 47.46753 | 7.58628 | 35015 ft | 409 kts | 207° |
| 2026-05-04 16:51 | 47.39072 | 7.53112 | 35010 ft | 409 kts | 207° |
| 2026-05-04 16:52 | 47.28844 | 7.45829 | 35062 ft | 409 kts | 207° |
| 2026-05-04 16:53 | 47.21144 | 7.40359 | 35067 ft | 408 kts | 207° |
| 2026-05-04 16:53 | 47.14356 | 7.33093 | 35058 ft | 406 kts | 230° |
| 2026-05-04 16:54 | 47.12631 | 7.29885 | 35056 ft | 406 kts | 231° |
| 2026-05-04 16:55 | 47.02058 | 7.10486 | 35038 ft | 406 kts | 230° |
| 2026-05-04 16:56 | 46.93237 | 6.94369 | 35071 ft | 405 kts | 230° |
| 2026-05-04 16:57 | 46.87185 | 6.85847 | 35069 ft | 403 kts | 219° |
| 2026-05-04 16:58 | 46.78459 | 6.75485 | 35065 ft | 403 kts | 219° |
| 2026-05-04 17:00 | 46.65459 | 6.60078 | 35041 ft | 402 kts | 219° |
| 2026-05-04 17:01 | 46.54553 | 6.47240 | 35036 ft | 402 kts | 219° |
| 2026-05-04 17:02 | 46.45855 | 6.37050 | 35051 ft | 401 kts | 219° |
| 2026-05-04 17:03 | 46.39338 | 6.29426 | 35045 ft | 402 kts | 219° |
| 2026-05-04 17:03 | 46.32835 | 6.21863 | 35057 ft | 402 kts | 219° |
| 2026-05-04 17:04 | 46.23530 | 6.13064 | 35059 ft | 405 kts | 199° |
| 2026-05-04 17:05 | 46.12343 | 6.10326 | 35051 ft | 409 kts | 192° |
| 2026-05-04 17:06 | 46.03895 | 6.08442 | 35061 ft | 410 kts | 192° |
| 2026-05-04 17:07 | 45.96401 | 6.06785 | 35047 ft | 410 kts | 192° |
| 2026-05-04 17:07 | 45.89822 | 6.05344 | 35054 ft | 410 kts | 192° |
| 2026-05-04 17:08 | 45.81369 | 6.03480 | 35057 ft | 410 kts | 193° |
| 2026-05-04 17:09 | 45.75735 | 6.02232 | 35055 ft | 409 kts | 193° |
| 2026-05-04 17:09 | 45.70114 | 6.00996 | 35039 ft | 408 kts | 193° |
| 2026-05-04 17:10 | 45.56056 | 5.97899 | 35033 ft | 408 kts | 193° |
| 2026-05-04 17:11 | 45.50483 | 5.96680 | 35034 ft | 407 kts | 193° |
| 2026-05-04 17:12 | 45.42139 | 5.94506 | 35027 ft | 405 kts | 197° |
| 2026-05-04 17:13 | 45.28425 | 5.90031 | 35022 ft | 405 kts | 197° |
| 2026-05-04 17:14 | 45.17414 | 5.86626 | 35015 ft | 405 kts | 196° |
| 2026-05-04 17:15 | 45.09136 | 5.84071 | 35022 ft | 405 kts | 196° |
| 2026-05-04 17:16 | 44.98135 | 5.80671 | 34988 ft | 405 kts | 196° |
| 2026-05-04 17:17 | 44.87110 | 5.77278 | 35000 ft | 406 kts | 196° |
| 2026-05-04 17:18 | 44.76055 | 5.73899 | 34994 ft | 406 kts | 196° |
| 2026-05-04 17:19 | 44.64991 | 5.70528 | 35024 ft | 407 kts | 195° |
| 2026-05-04 17:20 | 44.53932 | 5.67163 | 35032 ft | 407 kts | 195° |
| 2026-05-04 17:20 | 44.45640 | 5.64655 | 35018 ft | 406 kts | 195° |
| 2026-05-04 17:21 | 44.34776 | 5.60599 | 35017 ft | 402 kts | 204° |
| 2026-05-04 17:22 | 44.29571 | 5.57728 | 35020 ft | 402 kts | 204° |
| 2026-05-04 17:23 | 44.19135 | 5.52032 | 35017 ft | 402 kts | 204° |
| 2026-05-04 17:24 | 44.11318 | 5.47767 | 35021 ft | 402 kts | 204° |
| 2026-05-04 17:25 | 44.00898 | 5.42107 | 35016 ft | 402 kts | 204° |
| 2026-05-04 17:26 | 43.90464 | 5.36466 | 35013 ft | 402 kts | 204° |
| 2026-05-04 17:27 | 43.78307 | 5.29889 | 35023 ft | 401 kts | 204° |
| 2026-05-04 17:28 | 43.67925 | 5.24312 | 35009 ft | 400 kts | 205° |
| 2026-05-04 17:29 | 43.52412 | 5.16016 | 35013 ft | 398 kts | 205° |
| 2026-05-04 17:31 | 43.39545 | 5.09134 | 35013 ft | 395 kts | 208° |
| 2026-05-04 17:32 | 43.28198 | 4.98852 | 34987 ft | 390 kts | 217° |
| 2026-05-04 17:33 | 43.19276 | 4.90457 | 34988 ft | 389 kts | 216° |
| 2026-05-04 17:34 | 43.10292 | 4.82046 | 34959 ft | 390 kts | 216° |
| 2026-05-04 17:35 | 42.99751 | 4.70585 | 34955 ft | 387 kts | 223° |
| 2026-05-04 17:36 | 42.95718 | 4.65723 | 34956 ft | 387 kts | 223° |
| 2026-05-04 17:36 | 42.91689 | 4.60867 | 34945 ft | 387 kts | 223° |
| 2026-05-04 17:37 | 42.87658 | 4.56013 | 34968 ft | 386 kts | 222° |
| 2026-05-04 17:37 | 42.83622 | 4.51158 | 34959 ft | 387 kts | 222° |
| 2026-05-04 17:38 | 42.79615 | 4.46346 | 34949 ft | 387 kts | 222° |
| 2026-05-04 17:38 | 42.75546 | 4.41471 | 34940 ft | 387 kts | 222° |
| 2026-05-04 17:39 | 42.69485 | 4.34230 | 34931 ft | 387 kts | 222° |
| 2026-05-04 17:39 | 42.65422 | 4.29397 | 34931 ft | 387 kts | 222° |
| 2026-05-04 17:40 | 42.61375 | 4.24571 | 34928 ft | 387 kts | 222° |
| 2026-05-04 17:40 | 42.57323 | 4.19755 | 34927 ft | 387 kts | 222° |
| 2026-05-04 17:41 | 42.53260 | 4.14937 | 34920 ft | 388 kts | 222° |
| 2026-05-04 17:41 | 42.49199 | 4.10126 | 34927 ft | 388 kts | 222° |
| 2026-05-04 17:42 | 42.45130 | 4.05315 | 34925 ft | 388 kts | 222° |
| 2026-05-04 17:42 | 42.41060 | 4.00521 | 34926 ft | 388 kts | 222° |
| 2026-05-04 17:43 | 42.36979 | 3.95712 | 34912 ft | 390 kts | 222° |
| 2026-05-04 17:43 | 42.32877 | 3.90894 | 34880 ft | 391 kts | 222° |
| 2026-05-04 17:44 | 42.28799 | 3.86112 | 33906 ft | 396 kts | 222° |
| 2026-05-04 17:44 | 42.26708 | 3.83659 | 32966 ft | 401 kts | 222° |
| 2026-05-04 17:44 | 42.24601 | 3.81186 | 32246 ft | 401 kts | 222° |
| 2026-05-04 17:45 | 42.22489 | 3.78712 | 31435 ft | 404 kts | 221° |
| 2026-05-04 17:45 | 42.20380 | 3.76247 | 30975 ft | 398 kts | 221° |
| 2026-05-04 17:45 | 42.18299 | 3.73820 | 30427 ft | 394 kts | 221° |
| 2026-05-04 17:45 | 42.16231 | 3.71413 | 29864 ft | 392 kts | 221° |
| 2026-05-04 17:46 | 42.14180 | 3.69029 | 29213 ft | 389 kts | 221° |
| 2026-05-04 17:46 | 42.12135 | 3.66651 | 28598 ft | 386 kts | 221° |
| 2026-05-04 17:46 | 42.10114 | 3.64301 | 28002 ft | 382 kts | 221° |
| 2026-05-04 17:46 | 42.08152 | 3.61909 | 27411 ft | 379 kts | 226° |
| 2026-05-04 17:47 | 42.06334 | 3.59355 | 26832 ft | 376 kts | 226° |
| 2026-05-04 17:47 | 42.04527 | 3.56824 | 26264 ft | 374 kts | 226° |
| 2026-05-04 17:47 | 42.02736 | 3.54316 | 25683 ft | 368 kts | 226° |
| 2026-05-04 17:47 | 42.00972 | 3.51853 | 24771 ft | 364 kts | 226° |
| 2026-05-04 17:48 | 41.99222 | 3.49413 | 23873 ft | 360 kts | 226° |
| 2026-05-04 17:48 | 41.97491 | 3.47005 | 22903 ft | 356 kts | 226° |
| 2026-05-04 17:48 | 41.95781 | 3.44631 | 22127 ft | 348 kts | 226° |
| 2026-05-04 17:48 | 41.94076 | 3.42267 | 21873 ft | 351 kts | 226° |
| 2026-05-04 17:49 | 41.92399 | 3.39943 | 21519 ft | 349 kts | 226° |
| 2026-05-04 17:49 | 41.90713 | 3.37605 | 21179 ft | 349 kts | 226° |
| 2026-05-04 17:49 | 41.89031 | 3.35270 | 20831 ft | 347 kts | 226° |
| 2026-05-04 17:49 | 41.87355 | 3.32944 | 20486 ft | 346 kts | 226° |
| 2026-05-04 17:50 | 41.85681 | 3.30625 | 20139 ft | 345 kts | 226° |
| 2026-05-04 17:50 | 41.84016 | 3.28323 | 19794 ft | 344 kts | 226° |
| 2026-05-04 17:50 | 41.82353 | 3.26023 | 19450 ft | 342 kts | 226° |
| 2026-05-04 17:50 | 41.80698 | 3.23734 | 19112 ft | 341 kts | 225° |
| 2026-05-04 17:51 | 41.79053 | 3.21462 | 18769 ft | 340 kts | 225° |
| 2026-05-04 17:51 | 41.77405 | 3.19188 | 18432 ft | 339 kts | 225° |
| 2026-05-04 17:51 | 41.75761 | 3.16919 | 18073 ft | 338 kts | 225° |
| 2026-05-04 17:51 | 41.74126 | 3.14667 | 17722 ft | 337 kts | 225° |
| 2026-05-04 17:52 | 41.72477 | 3.12396 | 17374 ft | 335 kts | 225° |
| 2026-05-04 17:52 | 41.70881 | 3.10199 | 17048 ft | 333 kts | 225° |
| 2026-05-04 17:52 | 41.69273 | 3.07991 | 16719 ft | 332 kts | 225° |
| 2026-05-04 17:52 | 41.67665 | 3.05786 | 16380 ft | 330 kts | 225° |
| 2026-05-04 17:53 | 41.66037 | 3.03630 | 16059 ft | 327 kts | 220° |
| 2026-05-04 17:53 | 41.64169 | 3.01930 | 15566 ft | 327 kts | 209° |
| 2026-05-04 17:53 | 41.62094 | 3.00624 | 15015 ft | 329 kts | 206° |
| 2026-05-04 17:53 | 41.60025 | 2.99354 | 14603 ft | 325 kts | 206° |
| 2026-05-04 17:54 | 41.57953 | 2.98083 | 14141 ft | 323 kts | 206° |
| 2026-05-04 17:54 | 41.55956 | 2.96854 | 13710 ft | 321 kts | 206° |
| 2026-05-04 17:54 | 41.53910 | 2.95589 | 13220 ft | 319 kts | 206° |
| 2026-05-04 17:54 | 41.51902 | 2.94346 | 12726 ft | 317 kts | 206° |
| 2026-05-04 17:55 | 41.49938 | 2.93131 | 12259 ft | 315 kts | 206° |
| 2026-05-04 17:55 | 41.47945 | 2.91899 | 12055 ft | 305 kts | 206° |
| 2026-05-04 17:55 | 41.46065 | 2.90739 | 11924 ft | 293 kts | 206° |
| 2026-05-04 17:55 | 41.44246 | 2.89617 | 11774 ft | 282 kts | 206° |
| 2026-05-04 17:56 | 41.42482 | 2.88533 | 11474 ft | 278 kts | 206° |
| 2026-05-04 17:56 | 41.40757 | 2.87391 | 11105 ft | 275 kts | 213° |
| 2026-05-04 17:56 | 41.39313 | 2.85788 | 10909 ft | 270 kts | 227° |
| 2026-05-04 17:56 | 41.38052 | 2.83978 | 10522 ft | 271 kts | 226° |
| 2026-05-04 17:57 | 41.36748 | 2.82125 | 10102 ft | 271 kts | 226° |
| 2026-05-04 17:57 | 41.35453 | 2.80295 | 9705 ft | 270 kts | 226° |
| 2026-05-04 17:57 | 41.34172 | 2.78487 | 9459 ft | 264 kts | 226° |
| 2026-05-04 17:57 | 41.32924 | 2.76730 | 9379 ft | 265 kts | 226° |
| 2026-05-04 17:58 | 41.31644 | 2.74928 | 9288 ft | 265 kts | 226° |
| 2026-05-04 17:58 | 41.30396 | 2.73173 | 9199 ft | 264 kts | 226° |
| 2026-05-04 17:58 | 41.29136 | 2.71405 | 9110 ft | 264 kts | 226° |
| 2026-05-04 17:58 | 41.28046 | 2.69872 | 9029 ft | 263 kts | 226° |
| 2026-05-04 17:59 | 41.26625 | 2.67782 | 8913 ft | 263 kts | 233° |
| 2026-05-04 18:00 | 41.25770 | 2.65677 | 8824 ft | 263 kts | 249° |
| 2026-05-04 18:00 | 41.25398 | 2.63303 | 8733 ft | 265 kts | 264° |
| 2026-05-04 18:00 | 41.25333 | 2.60853 | 8642 ft | 265 kts | 265° |
| 2026-05-04 18:00 | 41.25261 | 2.58411 | 8536 ft | 262 kts | 265° |
| 2026-05-04 18:01 | 41.25191 | 2.56047 | 8420 ft | 250 kts | 265° |
| 2026-05-04 18:01 | 41.25124 | 2.53795 | 8292 ft | 239 kts | 264° |
| 2026-05-04 18:01 | 41.25059 | 2.51634 | 8212 ft | 230 kts | 264° |
| 2026-05-04 18:02 | 41.24923 | 2.47414 | 8106 ft | 228 kts | 264° |
| 2026-05-04 18:02 | 41.24881 | 2.45315 | 8030 ft | 229 kts | 271° |
| 2026-05-04 18:02 | 41.25319 | 2.43261 | 7966 ft | 236 kts | 295° |
| 2026-05-04 18:02 | 41.26399 | 2.41590 | 7773 ft | 244 kts | 320° |
| 2026-05-04 18:03 | 41.27915 | 2.40563 | 7644 ft | 243 kts | 331° |
| 2026-05-04 18:03 | 41.29447 | 2.39681 | 7418 ft | 237 kts | 335° |
| 2026-05-04 18:03 | 41.31084 | 2.39402 | 7263 ft | 243 kts | 4° |
| 2026-05-04 18:03 | 41.32666 | 2.40216 | 7128 ft | 248 kts | 36° |
| 2026-05-04 18:04 | 41.33751 | 2.41956 | 6958 ft | 246 kts | 65° |
| 2026-05-04 18:04 | 41.34232 | 2.43355 | 6839 ft | 247 kts | 67° |
| 2026-05-04 18:04 | 41.35618 | 2.47446 | 6483 ft | 245 kts | 67° |
| 2026-05-04 18:05 | 41.36320 | 2.49506 | 6333 ft | 244 kts | 67° |
| 2026-05-04 18:05 | 41.37022 | 2.51559 | 6166 ft | 243 kts | 67° |
| 2026-05-04 18:05 | 41.37720 | 2.53600 | 6011 ft | 241 kts | 67° |
| 2026-05-04 18:05 | 41.38414 | 2.55629 | 5712 ft | 243 kts | 67° |
| 2026-05-04 18:06 | 41.39792 | 2.59680 | 5312 ft | 236 kts | 68° |
| 2026-05-04 18:06 | 41.40457 | 2.61662 | 5264 ft | 235 kts | 68° |
| 2026-05-04 18:06 | 41.41123 | 2.63662 | 5235 ft | 236 kts | 68° |
| 2026-05-04 18:07 | 41.41816 | 2.65640 | 5170 ft | 237 kts | 60° |
| 2026-05-04 18:07 | 41.42851 | 2.67333 | 5115 ft | 236 kts | 45° |
| 2026-05-04 18:07 | 41.44238 | 2.68461 | 5058 ft | 234 kts | 14° |
| 2026-05-04 18:07 | 41.45819 | 2.68450 | 5010 ft | 227 kts | 339° |
| 2026-05-04 18:08 | 41.47097 | 2.67352 | 4798 ft | 213 kts | 306° |
| 2026-05-04 18:08 | 41.47655 | 2.65623 | 4280 ft | 202 kts | 271° |
| 2026-05-04 18:08 | 41.47324 | 2.63875 | 3763 ft | 195 kts | 235° |
| 2026-05-04 18:08 | 41.46284 | 2.62771 | 3272 ft | 193 kts | 208° |
| 2026-05-04 18:09 | 41.44120 | 2.60842 | 2274 ft | 191 kts | 244° |
| 2026-05-04 18:09 | 41.43988 | 2.57596 | 2196 ft | 161 kts | 268° |
| 2026-05-04 18:10 | 41.44026 | 2.56140 | 2196 ft | 155 kts | 268° |
| 2026-05-04 18:10 | 41.44055 | 2.54722 | 2200 ft | 152 kts | 268° |
| 2026-05-04 18:10 | 41.44082 | 2.53312 | 2204 ft | 151 kts | 268° |
| 2026-05-04 18:10 | 41.44108 | 2.51915 | 2206 ft | 152 kts | 268° |
| 2026-05-04 18:11 | 41.43985 | 2.50530 | 2213 ft | 150 kts | 251° |
| 2026-05-04 18:11 | 41.43662 | 2.49218 | 2199 ft | 148 kts | 247° |
| 2026-05-04 18:11 | 41.43281 | 2.47934 | 2200 ft | 148 kts | 245° |
| 2026-05-04 18:11 | 41.42848 | 2.46578 | 2224 ft | 170 kts | 244° |
| 2026-05-04 18:12 | 41.42363 | 2.45108 | 2212 ft | 174 kts | 244° |
| 2026-05-04 18:12 | 41.41871 | 2.43636 | 2200 ft | 174 kts | 244° |
| 2026-05-04 18:12 | 41.41376 | 2.42166 | 2197 ft | 173 kts | 244° |
| 2026-05-04 18:12 | 41.40880 | 2.40699 | 2199 ft | 175 kts | 244° |
| 2026-05-04 18:13 | 41.40380 | 2.39220 | 2190 ft | 174 kts | 244° |
| 2026-05-04 18:13 | 41.39885 | 2.37757 | 2194 ft | 173 kts | 244° |
| 2026-05-04 18:13 | 41.38891 | 2.34821 | 2189 ft | 173 kts | 244° |
| 2026-05-04 18:14 | 41.38396 | 2.33362 | 2203 ft | 173 kts | 244° |
| 2026-05-04 18:14 | 41.37901 | 2.31901 | 2201 ft | 173 kts | 244° |
| 2026-05-04 18:14 | 41.37407 | 2.30444 | 2183 ft | 173 kts | 244° |
| 2026-05-04 18:15 | 41.36409 | 2.27506 | 2187 ft | 175 kts | 245° |
| 2026-05-04 18:15 | 41.35400 | 2.24536 | 2176 ft | 177 kts | 245° |
| 2026-05-04 18:15 | 41.34894 | 2.23051 | 2037 ft | 176 kts | 245° |
| 2026-05-04 18:16 | 41.34392 | 2.21576 | 1859 ft | 173 kts | 245° |
| 2026-05-04 18:16 | 41.33897 | 2.20120 | 1626 ft | 172 kts | 245° |
| 2026-05-04 18:16 | 41.33406 | 2.18680 | 1366 ft | 167 kts | 245° |
| 2026-05-04 18:17 | 41.32511 | 2.16054 | 957 ft | 144 kts | 245° |
| 2026-05-04 18:17 | 41.32109 | 2.14879 | 775 ft | 138 kts | 245° |
| 2026-05-04 18:17 | 41.31333 | 2.12574 | 454 ft | 138 kts | 244° |
| 2026-05-04 18:18 | 41.30930 | 2.11408 | 232 ft | 138 kts | 246° |
| 2026-05-04 18:18 | 41.30534 | 2.10251 | 39 ft | 138 kts | 245° |
| 2026-05-04 18:18 | 41.30164 | 2.09176 | 29 ft | 119 kts | 244° |
| 2026-05-04 18:18 | 41.29756 | 2.08075 | 446 ft | 146 kts | 241° |
| 2026-05-04 18:19 | 41.28582 | 2.05207 | 1517 ft | 193 kts | 244° |
| 2026-05-04 18:19 | 41.28002 | 2.03519 | 1850 ft | 211 kts | 245° |
| 2026-05-04 18:19 | 41.27400 | 2.01722 | 2600 ft | 215 kts | 245° |
| 2026-05-04 18:20 | 41.26803 | 1.99925 | 3279 ft | 215 kts | 244° |
| 2026-05-04 18:20 | 41.26036 | 1.98229 | 3566 ft | 214 kts | 223° |
| 2026-05-04 18:20 | 41.24720 | 1.97340 | 3825 ft | 217 kts | 190° |
| 2026-05-04 18:20 | 41.23203 | 1.97545 | 3970 ft | 225 kts | 166° |
| 2026-05-04 18:21 | 41.21722 | 1.98240 | 4001 ft | 226 kts | 162° |
| 2026-05-04 18:21 | 41.20241 | 1.99011 | 4001 ft | 226 kts | 162° |
| 2026-05-04 18:21 | 41.18873 | 2.00053 | 4007 ft | 232 kts | 137° |
| 2026-05-04 18:21 | 41.18069 | 2.01925 | 4013 ft | 241 kts | 105° |
| 2026-05-04 18:22 | 41.18121 | 2.04150 | 4014 ft | 246 kts | 72° |
| 2026-05-04 18:22 | 41.18803 | 2.06236 | 4004 ft | 247 kts | 63° |
| 2026-05-04 18:22 | 41.19601 | 2.08260 | 4005 ft | 248 kts | 62° |
| 2026-05-04 18:22 | 41.20418 | 2.10274 | 4005 ft | 248 kts | 62° |
| 2026-05-04 18:23 | 41.21237 | 2.12288 | 4005 ft | 248 kts | 62° |
| 2026-05-04 18:23 | 41.22060 | 2.14304 | 4010 ft | 248 kts | 62° |
| 2026-05-04 18:23 | 41.22881 | 2.16308 | 4014 ft | 247 kts | 62° |
| 2026-05-04 18:23 | 41.23703 | 2.18317 | 4002 ft | 247 kts | 62° |
| 2026-05-04 18:24 | 41.24524 | 2.20329 | 4012 ft | 248 kts | 62° |
| 2026-05-04 18:24 | 41.25347 | 2.22346 | 4004 ft | 248 kts | 62° |
| 2026-05-04 18:24 | 41.26161 | 2.24345 | 4010 ft | 248 kts | 62° |
| 2026-05-04 18:24 | 41.26985 | 2.26373 | 4008 ft | 248 kts | 62° |
| 2026-05-04 18:25 | 41.27807 | 2.28389 | 4019 ft | 248 kts | 62° |
| 2026-05-04 18:25 | 41.28627 | 2.30403 | 4019 ft | 248 kts | 62° |
| 2026-05-04 18:25 | 41.29457 | 2.32410 | 4008 ft | 248 kts | 62° |
| 2026-05-04 18:25 | 41.30297 | 2.34420 | 4011 ft | 249 kts | 62° |
| 2026-05-04 18:26 | 41.31137 | 2.36428 | 4021 ft | 248 kts | 62° |
| 2026-05-04 18:26 | 41.32045 | 2.38387 | 4009 ft | 249 kts | 52° |
| 2026-05-04 18:26 | 41.33243 | 2.40014 | 3784 ft | 246 kts | 31° |
| 2026-05-04 18:26 | 41.34800 | 2.40884 | 3506 ft | 241 kts | 14° |
| 2026-05-04 18:27 | 41.36373 | 2.41469 | 3386 ft | 229 kts | 12° |
| 2026-05-04 18:27 | 41.37885 | 2.41998 | 3188 ft | 221 kts | 12° |
| 2026-05-04 18:27 | 41.39381 | 2.42439 | 3034 ft | 219 kts | 359° |
| 2026-05-04 18:27 | 41.40764 | 2.41900 | 3021 ft | 206 kts | 315° |
| 2026-05-04 18:28 | 41.41371 | 2.40405 | 3031 ft | 172 kts | 267° |
| 2026-05-04 18:28 | 41.40921 | 2.39127 | 3018 ft | 151 kts | 217° |
| 2026-05-04 18:28 | 41.40103 | 2.38293 | 2998 ft | 147 kts | 232° |
| 2026-05-04 18:28 | 41.39754 | 2.37017 | 3031 ft | 148 kts | 249° |
| 2026-05-04 18:29 | 41.39291 | 2.35814 | 3022 ft | 147 kts | 241° |
| 2026-05-04 18:29 | 41.38841 | 2.34592 | 3021 ft | 146 kts | 242° |
| 2026-05-04 18:29 | 41.38414 | 2.33377 | 3018 ft | 145 kts | 243° |
| 2026-05-04 18:29 | 41.37993 | 2.32155 | 3016 ft | 145 kts | 243° |
| 2026-05-04 18:30 | 41.37152 | 2.29689 | 3002 ft | 147 kts | 244° |
| 2026-05-04 18:30 | 41.36732 | 2.28454 | 2885 ft | 147 kts | 245° |
| 2026-05-04 18:30 | 41.36312 | 2.27219 | 2732 ft | 147 kts | 245° |
| 2026-05-04 18:31 | 41.35890 | 2.25980 | 2532 ft | 148 kts | 245° |
| 2026-05-04 18:31 | 41.35463 | 2.24723 | 2376 ft | 148 kts | 246° |
| 2026-05-04 18:31 | 41.35039 | 2.23476 | 2155 ft | 147 kts | 246° |
| 2026-05-04 18:31 | 41.34614 | 2.22229 | 1951 ft | 148 kts | 245° |
| 2026-05-04 18:32 | 41.34192 | 2.20988 | 1749 ft | 147 kts | 245° |
| 2026-05-04 18:32 | 41.33781 | 2.19781 | 1562 ft | 141 kts | 246° |
| 2026-05-04 18:32 | 41.33382 | 2.18612 | 1358 ft | 138 kts | 246° |
| 2026-05-04 18:32 | 41.32988 | 2.17446 | 1153 ft | 138 kts | 246° |
| 2026-05-04 18:33 | 41.32607 | 2.16278 | 1013 ft | 137 kts | 245° |
| 2026-05-04 18:33 | 41.32208 | 2.15135 | 856 ft | 135 kts | 245° |
| 2026-05-04 18:33 | 41.31816 | 2.14002 | 648 ft | 135 kts | 245° |
| 2026-05-04 18:33 | 41.31428 | 2.12855 | 426 ft | 136 kts | 245° |
| 2026-05-04 18:34 | 41.31034 | 2.11717 | 263 ft | 136 kts | 245° |
| 2026-05-04 18:34 | 41.30639 | 2.10557 | 105 ft | 135 kts | 243° |
| 2026-05-04 18:34 | 41.30258 | 2.09459 | 18 ft | 124 kts | 246° |
| 2026-05-04 18:34 | 41.30001 | 2.08711 | 23 ft | 46 kts | 246° |
| 2026-05-04 18:35 | 41.29895 | 2.08410 | 25 ft | 35 kts | 239° |
| 2026-05-04 18:35 | 41.29729 | 2.08215 | 19 ft | 22 kts | 214° |
| 2026-05-04 18:35 | 41.29677 | 2.08198 | 17 ft | 0 kts | 182° |
| 2026-05-04 18:37 | 41.29649 | 2.08207 | 36 ft | 10 kts | 158° |
| 2026-05-04 18:37 | 41.29570 | 2.08257 | 16 ft | 13 kts | 154° |
| 2026-05-04 18:37 | 41.29495 | 2.08302 | 18 ft | 11 kts | 156° |
| 2026-05-04 18:38 | 41.29428 | 2.08341 | 20 ft | 9 kts | 156° |
| 2026-05-04 18:38 | 41.29353 | 2.08385 | 19 ft | 15 kts | 156° |
| 2026-05-04 18:38 | 41.29237 | 2.08454 | 21 ft | 18 kts | 155° |
| 2026-05-04 18:38 | 41.29178 | 2.08444 | 20 ft | 15 kts | 208° |
| 2026-05-04 18:39 | 41.29035 | 2.08373 | 20 ft | 13 kts | 202° |
| 2026-05-04 18:39 | 41.29030 | 2.08296 | 19 ft | 7 kts | 331° |
| 2026-05-04 18:39 | 41.29061 | 2.08295 | 19 ft | 6 kts | 2° |
| 2026-05-04 18:39 | 41.29096 | 2.08279 | 20 ft | 5 kts | 330° |
| 2026-05-04 18:40 | 41.29114 | 2.08266 | 19 ft | 0 kts | 332° |